createdAt,value
2022-07-26T00:01:53.527Z,22.07
2022-07-26T00:04:56.413Z,22.02
2022-07-26T00:08:10.840Z,21.97
2022-07-26T00:11:13.861Z,21.94
2022-07-26T00:14:16.558Z,21.88
2022-07-26T00:17:19.508Z,21.83
2022-07-26T00:20:22.197Z,21.80
2022-07-26T00:23:30.638Z,21.74
2022-07-26T00:26:34.106Z,21.66
2022-07-26T00:29:37.103Z,21.63
2022-07-26T00:32:39.843Z,21.62
2022-07-26T00:35:42.640Z,21.61
2022-07-26T00:38:45.332Z,21.59
2022-07-26T00:41:48.096Z,21.57
2022-07-26T00:44:50.797Z,21.52
2022-07-26T00:47:53.693Z,21.47
2022-07-26T00:50:56.375Z,21.42
2022-07-26T00:53:59.256Z,21.39
2022-07-26T00:57:01.819Z,21.42
2022-07-26T01:00:13.279Z,21.38
2022-07-26T01:03:15.956Z,21.35
2022-07-26T01:06:21.787Z,21.32
2022-07-26T01:09:27.199Z,21.31
2022-07-26T01:12:30.030Z,21.33
2022-07-26T01:15:32.529Z,21.29
2022-07-26T01:18:35.394Z,21.24
2022-07-26T01:21:38.024Z,21.22
2022-07-26T01:24:40.837Z,21.18
2022-07-26T01:27:44.218Z,21.14
2022-07-26T01:30:48.009Z,21.07
2022-07-26T01:33:50.716Z,21.03
2022-07-26T01:36:55.514Z,20.98
2022-07-26T01:39:58.170Z,20.93
2022-07-26T01:43:01.011Z,20.89
2022-07-26T01:46:09.972Z,20.85
2022-07-26T01:49:13.088Z,20.81
2022-07-26T01:52:15.687Z,20.77
2022-07-26T01:55:18.703Z,20.78
2022-07-26T01:58:22.068Z,20.75
2022-07-26T02:01:38.398Z,20.71
2022-07-26T02:05:01.933Z,20.67
2022-07-26T02:08:05.007Z,20.61
2022-07-26T02:11:07.827Z,20.58
2022-07-26T02:14:10.781Z,20.58
2022-07-26T02:17:14.142Z,20.55
2022-07-26T02:20:17.190Z,20.51
2022-07-26T02:23:21.165Z,20.49
2022-07-26T02:26:23.769Z,20.44
2022-07-26T02:29:27.332Z,20.39
2022-07-26T02:32:29.827Z,20.37
2022-07-26T02:35:32.732Z,20.42
2022-07-26T02:38:35.219Z,20.39
2022-07-26T02:41:38.378Z,20.35
2022-07-26T02:44:41.640Z,20.33
2022-07-26T02:47:49.352Z,20.31
2022-07-26T02:50:51.882Z,20.30
2022-07-26T02:53:54.814Z,20.28
2022-07-26T02:56:57.361Z,20.26
2022-07-26T03:00:00.194Z,20.26
2022-07-26T03:03:04.752Z,20.30
2022-07-26T03:06:07.867Z,20.71
2022-07-26T03:09:10.660Z,20.59
2022-07-26T03:12:13.511Z,20.49
2022-07-26T03:15:16.090Z,20.28
2022-07-26T03:18:19.184Z,20.24
2022-07-26T03:21:21.881Z,20.16
2022-07-26T03:24:24.687Z,20.11
2022-07-26T03:27:27.162Z,20.02
2022-07-26T03:30:30.186Z,20.03
2022-07-26T03:33:32.705Z,20.23
2022-07-26T03:36:35.639Z,20.32
2022-07-26T03:39:38.333Z,20.53
2022-07-26T03:42:42.518Z,20.51
2022-07-26T03:45:45.586Z,20.51
2022-07-26T03:48:48.446Z,20.49
2022-07-26T03:51:51.090Z,20.47
2022-07-26T03:54:53.938Z,20.66
2022-07-26T03:57:57.143Z,20.69
2022-07-26T04:01:00.202Z,20.68
2022-07-26T04:04:03.604Z,20.64
2022-07-26T04:07:06.137Z,20.70
2022-07-26T04:10:13.274Z,20.88
2022-07-26T04:13:15.760Z,20.94
2022-07-26T04:16:18.639Z,21.03
2022-07-26T04:19:21.198Z,21.10
2022-07-26T04:22:24.014Z,21.22
2022-07-26T04:25:26.707Z,21.43
2022-07-26T04:28:42.591Z,21.69
2022-07-26T04:31:45.501Z,21.95
2022-07-26T04:34:56.377Z,22.04
2022-07-26T04:38:00.645Z,22.29
2022-07-26T04:41:03.938Z,22.59
2022-07-26T04:44:06.733Z,22.73
2022-07-26T04:47:09.970Z,22.80
2022-07-26T04:50:13.142Z,22.63
2022-07-26T04:53:18.146Z,22.14
2022-07-26T04:56:20.713Z,22.03
2022-07-26T04:59:23.836Z,21.98
2022-07-26T05:02:26.958Z,22.13
2022-07-26T05:05:32.223Z,22.34
2022-07-26T05:08:34.863Z,22.54
2022-07-26T05:11:37.863Z,22.63
2022-07-26T05:14:40.444Z,22.62
2022-07-26T05:17:44.068Z,22.69
2022-07-26T05:20:46.890Z,22.58
2022-07-26T05:23:49.640Z,22.85
2022-07-26T05:26:55.447Z,23.13
2022-07-26T05:30:01.663Z,23.40
2022-07-26T05:33:04.662Z,23.50
2022-07-26T05:36:08.172Z,23.60
2022-07-26T05:39:16.025Z,23.64
2022-07-26T05:42:19.191Z,23.75
2022-07-26T05:45:21.729Z,23.89
2022-07-26T05:48:24.638Z,24.08
2022-07-26T05:51:27.168Z,24.30
2022-07-26T05:54:30.760Z,24.53
2022-07-26T05:57:33.455Z,24.78
2022-07-26T06:00:36.282Z,24.92
2022-07-26T06:03:39.178Z,25.24
2022-07-26T06:06:41.886Z,25.44
2022-07-26T06:09:44.923Z,25.66
2022-07-26T06:12:47.384Z,25.80
2022-07-26T06:15:50.941Z,26.00
2022-07-26T06:18:53.470Z,26.13
2022-07-26T06:21:56.427Z,26.10
2022-07-26T06:24:58.880Z,26.29
2022-07-26T06:28:03.960Z,26.43
2022-07-26T06:31:06.963Z,26.46
2022-07-26T06:34:10.313Z,26.40
2022-07-26T06:37:13.018Z,26.43
2022-07-26T06:40:15.965Z,26.27
2022-07-26T06:43:18.522Z,26.37
2022-07-26T06:46:21.922Z,26.67
2022-07-26T06:49:24.534Z,26.79
2022-07-26T06:52:27.543Z,26.54
2022-07-26T06:55:30.072Z,26.59
2022-07-26T06:58:34.246Z,26.77
2022-07-26T07:01:51.539Z,26.95
2022-07-26T07:04:59.738Z,27.33
2022-07-26T07:08:02.328Z,27.34
2022-07-26T07:11:05.329Z,27.54
2022-07-26T07:14:10.021Z,27.28
2022-07-26T07:17:17.274Z,27.81
2022-07-26T07:20:22.888Z,27.71
2022-07-26T07:23:25.776Z,27.82
2022-07-26T07:26:28.615Z,28.03
2022-07-26T07:29:31.969Z,28.28
2022-07-26T07:32:34.634Z,28.85
2022-07-26T07:35:38.052Z,29.55
2022-07-26T07:38:42.877Z,30.46
2022-07-26T07:41:46.448Z,30.32
2022-07-26T07:44:50.085Z,30.46
2022-07-26T07:47:53.074Z,29.33
2022-07-26T07:50:55.817Z,29.93
2022-07-26T07:54:00.264Z,29.72
2022-07-26T07:57:05.074Z,30.09
2022-07-26T08:00:09.009Z,29.29
2022-07-26T08:03:17.942Z,29.52
2022-07-26T08:06:21.705Z,29.17
2022-07-26T08:09:25.596Z,29.85
2022-07-26T08:12:31.963Z,30.36
2022-07-26T08:15:34.666Z,31.02
2022-07-26T08:18:56.147Z,31.24
2022-07-26T08:22:00.621Z,30.29
2022-07-26T08:25:05.382Z,29.40
2022-07-26T08:28:15.514Z,29.33
2022-07-26T08:31:31.094Z,28.28
2022-07-26T08:34:36.806Z,28.49
2022-07-26T08:37:39.778Z,28.19
2022-07-26T08:40:42.663Z,28.06
2022-07-26T08:43:53.004Z,28.66
2022-07-26T08:46:55.992Z,29.12
2022-07-26T08:49:58.949Z,29.16
2022-07-26T08:53:04.219Z,30.69
2022-07-26T08:56:07.876Z,30.72
2022-07-26T08:59:20.587Z,31.52
2022-07-26T09:02:39.644Z,31.95
2022-07-26T09:05:42.211Z,31.98
2022-07-26T09:08:48.009Z,30.34
2022-07-26T09:11:50.862Z,31.17
2022-07-26T09:14:54.543Z,29.68
2022-07-26T09:17:57.959Z,29.98
2022-07-26T09:21:02.382Z,30.35
2022-07-26T09:24:05.609Z,29.55
2022-07-26T09:27:13.900Z,29.25
2022-07-26T09:30:17.233Z,29.30
2022-07-26T09:33:20.166Z,29.33
2022-07-26T09:36:22.755Z,29.01
2022-07-26T09:39:33.562Z,28.97
2022-07-26T09:42:38.157Z,28.55
2022-07-26T09:45:41.362Z,27.77
2022-07-26T09:52:21.485Z,27.53
2022-07-26T09:55:24.215Z,27.20
2022-07-26T09:58:30.822Z,26.74
2022-07-26T10:01:33.780Z,25.75
2022-07-26T10:04:36.972Z,23.75
2022-07-26T10:07:39.896Z,22.45
2022-07-26T10:11:07.360Z,21.88
2022-07-26T10:14:35.568Z,21.37
2022-07-26T10:17:41.687Z,21.19
2022-07-26T10:20:50.940Z,21.01
2022-07-26T10:23:56.914Z,20.97
2022-07-26T10:26:59.725Z,20.88
2022-07-26T10:30:21.895Z,20.92
2022-07-26T10:33:25.780Z,21.11
2022-07-26T10:36:37.339Z,21.33
2022-07-26T10:39:40.086Z,21.59
2022-07-26T10:42:44.875Z,21.45
2022-07-26T10:45:49.381Z,21.49
2022-07-26T10:49:05.180Z,21.77
2022-07-26T10:52:16.997Z,22.08
2022-07-26T10:55:19.845Z,22.24
2022-07-26T10:58:25.281Z,22.31
2022-07-26T11:01:40.687Z,22.28
2022-07-26T11:04:43.364Z,22.16
2022-07-26T11:07:58.577Z,22.14
2022-07-26T11:11:01.409Z,22.06
2022-07-26T11:14:10.275Z,22.25
2022-07-26T11:17:30.848Z,22.13
2022-07-26T11:20:34.108Z,22.30
2022-07-26T11:23:39.481Z,22.37
2022-07-26T11:26:44.044Z,22.50
2022-07-26T11:29:49.266Z,22.48
2022-07-26T11:32:55.792Z,22.52
2022-07-26T11:35:58.456Z,22.51
2022-07-26T11:39:02.922Z,22.49
2022-07-26T11:42:11.630Z,22.75
2022-07-26T11:45:14.928Z,22.66
2022-07-26T11:48:17.581Z,22.85
2022-07-26T11:51:22.975Z,22.82
2022-07-26T11:54:31.066Z,22.94
2022-07-26T11:57:33.945Z,23.03
2022-07-26T12:00:37.383Z,23.08
2022-07-26T12:03:41.965Z,22.95
2022-07-26T12:06:44.564Z,22.83
2022-07-26T12:09:52.604Z,22.99
2022-07-26T12:13:13.076Z,22.85
2022-07-26T12:16:34.781Z,23.01
2022-07-26T12:19:37.748Z,22.75
2022-07-26T12:22:40.718Z,23.04
2022-07-26T12:25:45.116Z,23.26
2022-07-26T12:28:53.100Z,23.43
2022-07-26T12:32:12.852Z,23.56
2022-07-26T12:35:17.426Z,23.73
2022-07-26T12:38:39.335Z,23.72
2022-07-26T12:41:42.407Z,23.85
2022-07-26T12:44:44.948Z,24.15
2022-07-26T12:47:52.491Z,24.37
2022-07-26T12:50:57.613Z,23.92
2022-07-26T12:54:00.677Z,23.88
2022-07-26T12:57:03.275Z,23.40
2022-07-26T13:00:08.013Z,23.59
2022-07-26T13:03:12.301Z,23.67
2022-07-26T13:06:15.413Z,24.90
2022-07-26T13:09:21.151Z,24.18
2022-07-26T13:12:24.228Z,24.35
2022-07-26T13:15:36.349Z,24.48
2022-07-26T13:18:40.613Z,24.85
2022-07-26T13:21:43.304Z,26.18
2022-07-26T13:24:46.102Z,29.00
2022-07-26T13:27:49.370Z,31.57
2022-07-26T13:30:52.626Z,30.28
2022-07-26T13:33:55.358Z,29.54
2022-07-26T13:36:58.736Z,29.58
2022-07-26T13:40:01.766Z,28.20
2022-07-26T13:43:05.130Z,27.31
2022-07-26T13:46:07.937Z,26.85
2022-07-26T13:49:11.169Z,25.49
2022-07-26T13:52:16.993Z,25.19
2022-07-26T13:55:20.782Z,24.72
2022-07-26T13:58:23.397Z,24.53
2022-07-26T14:01:43.671Z,24.88
2022-07-26T14:04:48.573Z,24.69
2022-07-26T14:07:51.254Z,24.75
2022-07-26T14:10:54.240Z,25.22
2022-07-26T14:13:57.029Z,24.98
2022-07-26T14:16:59.930Z,25.04
2022-07-26T14:20:04.176Z,25.22
2022-07-26T14:23:07.134Z,25.30
2022-07-26T14:26:09.615Z,24.81
2022-07-26T14:29:12.524Z,25.98
2022-07-26T14:32:21.053Z,26.05
2022-07-26T14:35:25.559Z,26.73
2022-07-26T14:38:30.089Z,26.86
2022-07-26T14:41:33.120Z,26.69
2022-07-26T14:44:35.671Z,26.80
2022-07-26T14:47:47.649Z,26.62
2022-07-26T14:51:08.533Z,25.13
2022-07-26T14:54:15.586Z,25.48
2022-07-26T14:57:19.749Z,25.45
2022-07-26T15:00:22.891Z,25.17
2022-07-26T15:03:26.088Z,25.19
2022-07-26T15:06:28.929Z,25.34
2022-07-26T15:09:31.663Z,25.34
2022-07-26T15:12:34.691Z,25.32
2022-07-26T15:15:37.361Z,25.65
2022-07-26T15:18:40.378Z,25.62
2022-07-26T15:21:42.935Z,25.61
2022-07-26T15:24:45.930Z,25.17
2022-07-26T15:27:48.822Z,25.36
2022-07-26T15:30:53.043Z,25.59
2022-07-26T15:33:55.847Z,25.58
2022-07-26T15:36:58.875Z,25.78
2022-07-26T15:40:02.671Z,25.35
2022-07-26T15:43:06.773Z,25.87
2022-07-26T15:46:10.063Z,26.10
2022-07-26T15:49:14.327Z,25.91
2022-07-26T15:52:16.986Z,25.43
2022-07-26T15:55:20.230Z,25.46
2022-07-26T15:58:22.953Z,25.30
2022-07-26T16:01:25.829Z,25.22
2022-07-26T16:04:28.762Z,25.30
2022-07-26T16:07:32.260Z,25.31
2022-07-26T16:10:35.217Z,25.33
2022-07-26T16:13:37.923Z,25.55
2022-07-26T16:16:40.855Z,25.32
2022-07-26T16:19:43.535Z,25.39
2022-07-26T16:22:47.274Z,25.28
2022-07-26T16:25:50.927Z,25.20
2022-07-26T16:28:54.408Z,25.29
2022-07-26T16:31:56.975Z,25.27
2022-07-26T16:34:59.830Z,25.27
2022-07-26T16:38:02.426Z,25.14
2022-07-26T16:41:05.254Z,25.12
2022-07-26T16:44:07.873Z,25.09
2022-07-26T16:47:10.705Z,25.12
2022-07-26T16:50:13.701Z,25.09
2022-07-26T16:53:30.283Z,25.18
2022-07-26T16:56:33.007Z,25.34
2022-07-26T16:59:36.116Z,25.17
2022-07-26T17:02:39.495Z,25.33
2022-07-26T17:05:43.623Z,25.24
2022-07-26T17:08:46.918Z,25.04
2022-07-26T17:11:49.914Z,24.92
2022-07-26T17:14:52.578Z,24.89
2022-07-26T17:17:55.367Z,24.71
2022-07-26T17:20:58.488Z,24.74
2022-07-26T17:24:05.420Z,24.72
2022-07-26T17:27:08.335Z,24.72
2022-07-26T17:30:12.077Z,24.52
2022-07-26T17:33:15.077Z,24.59
2022-07-26T17:36:25.371Z,24.54
2022-07-26T17:39:51.408Z,24.43
2022-07-26T17:42:51.044Z,24.25
2022-07-26T17:45:53.654Z,24.18
2022-07-26T17:48:56.539Z,24.09
2022-07-26T17:51:59.121Z,23.93
2022-07-26T17:55:02.638Z,23.90
2022-07-26T17:58:05.798Z,23.82
2022-07-26T18:01:08.597Z,23.74
2022-07-26T18:04:11.387Z,23.68
2022-07-26T18:07:14.457Z,23.59
2022-07-26T18:10:17.289Z,23.49
2022-07-26T18:13:19.916Z,23.48
2022-07-26T18:16:23.033Z,23.46
2022-07-26T18:19:25.754Z,23.37
2022-07-26T18:22:28.660Z,23.31
2022-07-26T18:25:31.155Z,23.23
2022-07-26T18:28:33.957Z,23.16
2022-07-26T18:31:36.539Z,23.12
2022-07-26T18:34:39.451Z,23.10
2022-07-26T18:37:54.744Z,22.93
2022-07-26T18:40:57.566Z,22.91
2022-07-26T18:44:00.198Z,22.78
2022-07-26T18:47:03.238Z,22.76
2022-07-26T18:50:06.763Z,22.65
2022-07-26T18:53:10.913Z,22.72
2022-07-26T18:56:13.546Z,22.63
2022-07-26T18:59:16.419Z,22.71
2022-07-26T19:02:19.307Z,22.66
2022-07-26T19:05:25.056Z,22.67
2022-07-26T19:08:28.543Z,22.54
2022-07-26T19:11:33.033Z,22.52
2022-07-26T19:14:40.422Z,22.54
2022-07-26T19:17:43.871Z,22.52
2022-07-26T19:20:46.566Z,22.45
2022-07-26T19:23:49.405Z,22.46
2022-07-26T19:26:52.032Z,22.34
2022-07-26T19:29:57.088Z,22.26
2022-07-26T19:33:06.044Z,22.31
2022-07-26T19:36:08.860Z,22.25
2022-07-26T19:39:11.913Z,22.19
2022-07-26T19:42:15.739Z,22.20
2022-07-26T19:45:18.567Z,22.13
2022-07-26T19:48:21.629Z,21.99
2022-07-26T19:51:24.229Z,22.12
2022-07-26T19:54:28.311Z,21.94
2022-07-26T19:57:30.915Z,21.86
2022-07-26T20:00:33.854Z,21.84
2022-07-26T20:03:36.636Z,21.82
2022-07-26T20:06:39.159Z,21.79
2022-07-26T20:09:42.027Z,21.75
2022-07-26T20:12:44.933Z,21.77
2022-07-26T20:15:48.022Z,21.69
2022-07-26T20:18:50.583Z,21.60
2022-07-26T20:21:53.747Z,21.51
2022-07-26T20:24:56.294Z,21.45
2022-07-26T20:27:59.734Z,21.45
2022-07-26T20:31:02.517Z,21.46
2022-07-26T20:34:05.347Z,21.45
2022-07-26T20:37:07.868Z,21.42
2022-07-26T20:40:12.503Z,21.39
2022-07-26T20:43:18.177Z,21.33
2022-07-26T20:46:21.055Z,21.35
2022-07-26T20:49:26.558Z,21.30
2022-07-26T20:52:29.460Z,21.30
2022-07-26T20:55:31.997Z,21.22
2022-07-26T20:58:34.753Z,21.16
2022-07-26T21:01:37.578Z,21.12
2022-07-26T21:04:40.492Z,21.06
2022-07-26T21:07:55.927Z,20.98
2022-07-26T21:11:02.187Z,20.98
2022-07-26T21:14:05.125Z,20.87
2022-07-26T21:17:11.660Z,20.90
2022-07-26T21:20:14.842Z,20.88
2022-07-26T21:23:18.394Z,20.82
2022-07-26T21:26:21.114Z,20.81
2022-07-26T21:29:23.948Z,20.75
2022-07-26T21:32:31.289Z,20.69
2022-07-26T21:35:34.574Z,20.70
2022-07-26T21:38:37.013Z,20.72
2022-07-26T21:41:39.845Z,20.59
2022-07-26T21:44:42.307Z,20.60
2022-07-26T21:47:45.167Z,20.51
2022-07-26T21:50:47.748Z,20.49
2022-07-26T21:53:50.458Z,20.48
2022-07-26T21:56:53.970Z,20.39
2022-07-26T21:59:56.725Z,20.47
2022-07-26T22:02:59.289Z,20.49
2022-07-26T22:06:02.097Z,20.44
2022-07-26T22:09:05.226Z,20.40
2022-07-26T22:12:08.565Z,20.36
2022-07-26T22:15:11.525Z,20.36
2022-07-26T22:18:14.657Z,20.33
2022-07-26T22:21:17.557Z,20.23
2022-07-26T22:24:20.315Z,20.20
2022-07-26T22:27:22.743Z,20.15
2022-07-26T22:30:28.405Z,20.16
2022-07-26T22:33:30.885Z,20.15
2022-07-26T22:36:33.717Z,20.10
2022-07-26T22:39:36.606Z,20.20
2022-07-26T22:42:39.449Z,20.07
2022-07-26T22:45:42.700Z,20.16
2022-07-26T22:48:48.061Z,20.22
2022-07-26T22:51:50.795Z,20.27
2022-07-26T22:54:53.539Z,20.31
2022-07-26T22:57:56.310Z,20.30
2022-07-26T23:00:59.202Z,20.26
2022-07-26T23:04:01.777Z,20.14
2022-07-26T23:07:07.838Z,20.13
2022-07-26T23:10:12.539Z,20.08
2022-07-26T23:13:16.399Z,20.13
2022-07-26T23:16:18.908Z,20.05
2022-07-26T23:19:26.035Z,19.99
2022-07-26T23:22:28.570Z,19.93
2022-07-26T23:25:31.427Z,19.87
2022-07-26T23:28:37.732Z,19.89
2022-07-26T23:31:42.193Z,19.88
2022-07-26T23:34:44.823Z,19.88
2022-07-26T23:37:47.593Z,19.82
2022-07-26T23:40:50.057Z,19.78
2022-07-26T23:43:54.177Z,19.76
2022-07-26T23:46:58.263Z,19.70
2022-07-26T23:50:01.112Z,19.57
2022-07-26T23:53:03.605Z,19.68
2022-07-26T23:56:06.380Z,19.74
2022-07-26T23:59:09.524Z,19.67
